Mossel Bay, South Africa

12:12 AM SAST on September 18, 2014 (GMT +0200)
George | Change Station
CLOSE
Current Station
Airport
Location: George,
Elevation: 633 ft
Nearby Weather Stations

Elev 633 ft 34.01 °S, 22.38 °E | Updated 12 minutes ago

Light Rain
Light Rain
55 °F
Feels Like 55 °F
N
9
Wind Variable Wind from SSW

Today
High -- | Low -- °F
--% Chance of Precip.
Yesterday
High -- | Low -- °F
Precip. -- in
6:26 AM 6:24 PM
Waning Crescent, 32% visible
Pressure 29.77 in
Visibility 5.0 miles
Clouds Mostly Cloudy 200 ft
Overcast 1000 ft
Dew Point 55 °F
Humidity 100%
Rainfall 0.00 in
Snow Depth Not available.
UV 0 out of 12
Pollen Not available.
Air Quality Not available.
Flu Activity Not available.
METAR FAGG 172200Z AUTO 20008KT 8000 -RA BKN002/// OVC010/// 13/13 Q1008 REDZ

More Conditions Fewer Conditions

Pressure 29.77 in
Visibility 5.0 miles
Clouds Mostly Cloudy 200 ft
Overcast 1000 ft
Dew Point 55 °F
Humidity 100%
Rainfall 0.00 in
Snow Depth Not available.
UV 0 out of 12
Pollen Not available.
Air Quality Not available.
Flu Activity Not available.
METAR FAGG 172200Z AUTO 20008KT 8000 -RA BKN002/// OVC010/// 13/13 Q1008 REDZ

More Conditions Fewer Conditions

10-Day Weather Forecast

Almanac

Astronomy

Sep. 18, 2014 Rise Set
Actual Time 6:26 AM SAST 6:24 PM SAST
Civil Twilight 6:01 AM SAST 6:49 PM SAST
Nautical Twilight 5:32 AM SAST 7:18 PM SAST
Astronomical Twilight 5:03 AM SAST 7:48 PM SAST
Moon 2:43 AM SAST (9/18) 1:27 PM SAST (9/18)
Length of Visible Light 12h 48m
Length of Day
11h 58m
Tomorrow will be 2m 6s longer.
Waning Crescent, 32% of the Moon is Illuminated
Sep 17
Waning Crescent
Sep 24
New
Oct 1
First Quarter
Oct 8
Full
Oct 15
Last Quarter

Yesterday's Extremes

Country Highs Country Lows

Community

WunderPhotos

Upload Photos

1,754,173 photos uploaded!

Nearby

Snow Depth

Not available.

Earthquake Activity

City Distance Mag. Time & Date
No recent earthquake activity has been reported nearby.
Minimum magnitude displayed is 2.5.

Coastal Water Temperatures

Place Temperature
No Stations Reporting

Nearby Weather Stations